createdAt,value
2018-07-04T00:02:19.488Z,13.82
2018-07-04T00:04:58.174Z,13.66
2018-07-04T00:07:36.850Z,13.48
2018-07-04T00:10:15.625Z,13.53
2018-07-04T00:12:54.257Z,13.43
2018-07-04T00:15:32.745Z,13.42
2018-07-04T00:18:11.420Z,13.41
2018-07-04T00:20:49.970Z,13.27
2018-07-04T00:23:28.578Z,13.41
2018-07-04T00:26:07.194Z,13.33
2018-07-04T00:28:45.756Z,13.17
2018-07-04T00:31:24.429Z,13.23
2018-07-04T00:34:03.165Z,13.18
2018-07-04T00:36:41.833Z,13.14
2018-07-04T00:39:20.433Z,13.04
2018-07-04T00:41:59.064Z,13.15
2018-07-04T00:44:37.624Z,13.19
2018-07-04T00:47:16.395Z,13.24
2018-07-04T00:49:54.886Z,13.40
2018-07-04T00:52:33.402Z,13.31
2018-07-04T00:55:11.912Z,13.06
2018-07-04T00:57:50.489Z,12.97
2018-07-04T01:00:29.034Z,13.02
2018-07-04T01:03:07.697Z,12.77
2018-07-04T01:05:46.382Z,12.77
2018-07-04T01:08:25.042Z,12.79
2018-07-04T01:11:04.034Z,12.98
2018-07-04T01:13:42.567Z,12.89
2018-07-04T01:16:20.969Z,13.01
2018-07-04T01:18:59.637Z,13.21
2018-07-04T01:21:38.076Z,13.07
2018-07-04T01:24:16.921Z,12.93
2018-07-04T01:26:55.606Z,12.98
2018-07-04T01:29:34.351Z,13.02
2018-07-04T01:32:12.953Z,12.72
2018-07-04T01:34:51.511Z,12.56
2018-07-04T01:37:30.065Z,12.40
2018-07-04T01:40:08.550Z,12.32
2018-07-04T01:42:47.101Z,12.54
2018-07-04T01:45:25.814Z,12.54
2018-07-04T01:48:04.470Z,12.67
2018-07-04T01:50:43.040Z,12.47
2018-07-04T01:53:21.722Z,12.66
2018-07-04T01:56:00.320Z,12.45
2018-07-04T01:58:38.953Z,12.49
2018-07-04T02:01:17.605Z,12.33
2018-07-04T02:03:56.216Z,12.21
2018-07-04T02:06:34.765Z,12.19
2018-07-04T02:09:13.514Z,12.20
2018-07-04T02:11:52.209Z,12.19
2018-07-04T02:14:30.949Z,12.20
2018-07-04T02:17:09.713Z,12.22
2018-07-04T02:19:48.317Z,12.25
2018-07-04T02:22:26.888Z,12.37
2018-07-04T02:25:05.398Z,12.00
2018-07-04T02:27:43.924Z,11.94
2018-07-04T02:30:22.409Z,12.09
2018-07-04T02:33:00.997Z,12.11
2018-07-04T02:35:39.726Z,11.93
2018-07-04T02:38:18.286Z,11.83
2018-07-04T02:40:56.796Z,11.77
2018-07-04T02:43:35.334Z,11.78
2018-07-04T02:46:18.554Z,11.95
2018-07-04T02:48:57.274Z,12.31
2018-07-04T02:51:35.892Z,11.95
2018-07-04T02:54:14.447Z,12.16
2018-07-04T02:56:53.070Z,12.47
2018-07-04T02:59:33.379Z,12.44
2018-07-04T03:02:13.163Z,11.93
2018-07-04T03:04:55.814Z,11.95
2018-07-04T03:07:36.566Z,12.21
2018-07-04T03:10:17.661Z,12.01
2018-07-04T03:12:56.449Z,11.85
2018-07-04T03:15:35.005Z,11.80
2018-07-04T03:18:13.873Z,11.81
2018-07-04T03:20:52.514Z,11.66
2018-07-04T03:23:31.531Z,11.49
2018-07-04T03:26:10.105Z,11.51
2018-07-04T03:28:48.797Z,11.60
2018-07-04T03:31:27.463Z,11.54
2018-07-04T03:34:06.197Z,11.90
2018-07-04T03:36:44.688Z,11.95
2018-07-04T03:39:23.544Z,11.63
2018-07-04T03:42:02.218Z,11.44
2018-07-04T03:44:40.806Z,11.40
2018-07-04T03:47:19.426Z,11.41
2018-07-04T03:49:57.956Z,11.50
2018-07-04T03:52:36.442Z,11.68
2018-07-04T03:55:14.870Z,11.76
2018-07-04T03:57:53.578Z,11.72
2018-07-04T04:00:32.004Z,12.04
2018-07-04T04:03:10.738Z,12.15
2018-07-04T04:05:49.229Z,12.11
2018-07-04T04:08:27.851Z,12.27
2018-07-04T04:11:06.434Z,12.50
2018-07-04T04:13:45.085Z,12.41
2018-07-04T04:16:23.805Z,12.44
2018-07-04T04:19:02.544Z,12.18
2018-07-04T04:21:41.339Z,12.10
2018-07-04T04:24:19.933Z,12.07
2018-07-04T04:26:58.576Z,12.15
2018-07-04T04:29:37.335Z,12.63
2018-07-04T04:32:16.006Z,12.42
2018-07-04T04:34:54.585Z,12.43
2018-07-04T04:37:33.268Z,12.48
2018-07-04T04:40:11.830Z,12.94
2018-07-04T04:42:50.551Z,12.94
2018-07-04T04:45:29.176Z,12.94
2018-07-04T04:48:07.772Z,12.92
2018-07-04T04:50:46.361Z,12.95
2018-07-04T04:53:25.197Z,13.30
2018-07-04T04:56:03.899Z,13.52
2018-07-04T04:58:42.527Z,13.68
2018-07-04T05:01:21.313Z,13.30
2018-07-04T05:03:59.905Z,13.16
2018-07-04T05:06:38.628Z,13.25
2018-07-04T05:09:17.313Z,13.27
2018-07-04T05:11:55.965Z,13.47
2018-07-04T05:14:34.529Z,13.50
2018-07-04T05:17:13.154Z,13.91
2018-07-04T05:19:51.708Z,13.97
2018-07-04T05:22:30.341Z,13.99
2018-07-04T05:25:09.597Z,13.91
2018-07-04T05:27:48.250Z,13.84
2018-07-04T05:30:26.933Z,13.89
2018-07-04T05:33:05.554Z,14.04
2018-07-04T05:35:44.193Z,14.05
2018-07-04T05:38:22.887Z,14.19
2018-07-04T05:41:01.363Z,14.17
2018-07-04T05:43:39.974Z,14.26
2018-07-04T05:46:18.461Z,14.36
2018-07-04T05:48:57.157Z,14.36
2018-07-04T05:51:35.843Z,14.46
2018-07-04T05:54:14.518Z,14.51
2018-07-04T05:56:53.131Z,14.56
2018-07-04T05:59:31.749Z,14.61
2018-07-04T06:02:10.312Z,14.77
2018-07-04T06:04:48.946Z,14.76
2018-07-04T06:07:27.568Z,14.77
2018-07-04T06:10:06.068Z,14.78
2018-07-04T06:12:44.742Z,14.85
2018-07-04T06:15:23.346Z,14.98
2018-07-04T06:18:02.044Z,15.02
2018-07-04T06:20:40.641Z,15.08
2018-07-04T06:23:19.256Z,15.12
2018-07-04T06:25:57.921Z,15.19
2018-07-04T06:28:36.592Z,15.33
2018-07-04T06:31:15.218Z,15.38
2018-07-04T06:33:54.807Z,15.44
2018-07-04T06:36:33.288Z,15.46
2018-07-04T06:38:59.464Z,15.50
2018-07-04T06:41:25.533Z,15.58
2018-07-04T06:43:52.659Z,15.68
2018-07-04T06:46:18.730Z,15.83
2018-07-04T06:48:44.813Z,15.74
2018-07-04T06:51:10.884Z,15.86
2018-07-04T06:53:36.972Z,15.95
2018-07-04T06:56:04.897Z,16.01
2018-07-04T06:58:30.984Z,16.08
2018-07-04T07:00:57.054Z,16.16
2018-07-04T07:03:35.661Z,16.27
2018-07-04T07:06:16.143Z,16.36
2018-07-04T07:08:55.087Z,16.37
2018-07-04T07:11:33.681Z,16.30
2018-07-04T07:14:12.591Z,16.58
2018-07-04T07:16:51.084Z,16.64
2018-07-04T07:19:29.845Z,16.62
2018-07-04T07:22:08.570Z,16.70
2018-07-04T07:24:47.279Z,16.77
2018-07-04T07:27:25.918Z,16.83
2018-07-04T07:30:04.520Z,16.92
2018-07-04T07:32:43.096Z,16.94
2018-07-04T07:35:21.718Z,17.06
2018-07-04T07:38:00.572Z,17.21
2018-07-04T07:40:39.209Z,17.14
2018-07-04T07:43:18.026Z,17.18
2018-07-04T07:45:56.570Z,17.24
2018-07-04T07:48:35.159Z,17.22
2018-07-04T07:51:13.781Z,17.27
2018-07-04T07:53:52.422Z,17.34
2018-07-04T07:56:31.019Z,17.46
2018-07-04T07:59:09.701Z,17.62
2018-07-04T08:01:48.226Z,17.76
2018-07-04T08:04:26.862Z,17.76
2018-07-04T08:07:05.522Z,17.76
2018-07-04T08:09:44.173Z,17.79
2018-07-04T08:12:22.849Z,17.87
2018-07-04T08:15:01.406Z,17.97
2018-07-04T08:17:39.838Z,17.99
2018-07-04T08:20:18.384Z,18.11
2018-07-04T08:22:56.913Z,18.23
2018-07-04T08:25:35.654Z,18.39
2018-07-04T08:28:14.391Z,18.32
2018-07-04T08:30:52.949Z,18.46
2018-07-04T08:33:31.555Z,18.59
2018-07-04T08:36:09.944Z,18.69
2018-07-04T08:38:48.698Z,18.60
2018-07-04T08:41:27.297Z,18.72
2018-07-04T08:44:05.905Z,18.80
2018-07-04T08:47:48.000Z,18.89
2018-07-04T08:50:26.666Z,19.01
2018-07-04T08:53:05.225Z,19.12
2018-07-04T08:55:43.844Z,19.12
2018-07-04T08:58:22.563Z,19.23
2018-07-04T09:01:01.153Z,19.21
2018-07-04T09:03:39.846Z,19.31
2018-07-04T09:06:18.401Z,19.45
2018-07-04T09:08:57.193Z,19.57
2018-07-04T09:11:35.811Z,19.61
2018-07-04T09:14:14.664Z,19.61
2018-07-04T09:16:53.406Z,19.61
2018-07-04T09:19:32.096Z,19.83
2018-07-04T09:22:10.755Z,19.64
2018-07-04T09:24:49.160Z,19.94
2018-07-04T09:27:27.882Z,20.14
2018-07-04T09:30:06.482Z,20.34
2018-07-04T09:32:45.071Z,20.33
2018-07-04T09:35:23.540Z,20.51
2018-07-04T09:38:02.179Z,20.51
2018-07-04T09:40:40.669Z,20.40
2018-07-04T09:43:19.473Z,20.47
2018-07-04T09:45:57.982Z,20.44
2018-07-04T09:48:36.652Z,20.55
2018-07-04T09:51:15.565Z,20.90
2018-07-04T09:53:54.183Z,21.03
2018-07-04T09:56:32.964Z,21.15
2018-07-04T09:59:11.558Z,20.99
2018-07-04T10:01:50.077Z,21.36
2018-07-04T10:04:28.717Z,21.37
2018-07-04T10:07:07.209Z,21.59
2018-07-04T10:09:45.774Z,21.60
2018-07-04T10:12:24.472Z,21.76
2018-07-04T10:15:03.146Z,21.69
2018-07-04T10:17:41.662Z,21.55
2018-07-04T10:20:20.248Z,21.99
2018-07-04T10:22:59.176Z,22.17
2018-07-04T10:25:37.666Z,22.21
2018-07-04T10:28:16.417Z,22.19
2018-07-04T10:30:55.097Z,22.06
2018-07-04T10:33:33.829Z,22.25
2018-07-04T10:36:12.426Z,22.48
2018-07-04T10:38:51.069Z,22.75
2018-07-04T10:41:29.809Z,22.73
2018-07-04T10:44:08.605Z,22.73
2018-07-04T10:46:47.257Z,22.82
2018-07-04T10:49:25.849Z,22.96
2018-07-04T10:52:04.696Z,22.93
2018-07-04T10:54:43.220Z,22.81
2018-07-04T10:57:21.829Z,22.90
2018-07-04T11:00:00.446Z,22.95
2018-07-04T11:02:39.070Z,23.00
2018-07-04T11:05:17.586Z,23.02
2018-07-04T11:07:56.265Z,23.00
2018-07-04T11:10:34.900Z,22.99
2018-07-04T11:13:13.554Z,23.07
2018-07-04T11:15:52.215Z,23.08
2018-07-04T11:18:30.801Z,23.13
2018-07-04T11:21:09.389Z,22.81
2018-07-04T11:23:48.011Z,22.73
2018-07-04T11:26:26.656Z,22.97
2018-07-04T11:29:05.266Z,23.25
2018-07-04T11:31:43.808Z,23.17
2018-07-04T11:34:22.474Z,22.99
2018-07-04T11:37:01.053Z,23.10
2018-07-04T11:39:39.591Z,22.74
2018-07-04T11:42:18.283Z,22.58
2018-07-04T11:44:56.942Z,22.38
2018-07-04T11:47:23.304Z,22.60
2018-07-04T11:49:49.372Z,22.98
2018-07-04T11:52:15.440Z,23.31
2018-07-04T11:54:41.525Z,23.32
2018-07-04T11:57:07.612Z,23.77
2018-07-04T11:59:33.676Z,23.84
2018-07-04T12:01:59.756Z,23.87
2018-07-04T12:04:38.349Z,23.85
2018-07-04T12:07:09.212Z,23.83
2018-07-04T12:09:36.875Z,23.66
2018-07-04T12:12:02.946Z,23.85
2018-07-04T12:14:29.430Z,23.76
2018-07-04T12:16:55.749Z,24.28
2018-07-04T12:19:21.860Z,24.59
2018-07-04T12:21:47.953Z,24.89
2018-07-04T12:24:14.065Z,24.69
2018-07-04T12:26:40.200Z,24.50
2018-07-04T12:29:06.297Z,24.49
2018-07-04T12:31:32.507Z,24.53
2018-07-04T12:33:58.572Z,24.95
2018-07-04T12:36:24.638Z,25.57
2018-07-04T12:38:50.717Z,25.71
2018-07-04T12:41:16.769Z,25.79
2018-07-04T12:43:43.151Z,25.73
2018-07-04T12:46:09.214Z,26.72
2018-07-04T12:48:35.310Z,26.29
2018-07-04T12:51:01.739Z,26.75
2018-07-04T12:53:27.798Z,26.39
2018-07-04T12:56:06.421Z,26.48
2018-07-04T12:58:45.077Z,27.62
2018-07-04T13:01:23.697Z,27.15
2018-07-04T13:04:02.365Z,27.41
2018-07-04T13:06:41.045Z,27.43
2018-07-04T13:09:19.743Z,27.37
2018-07-04T13:11:58.359Z,28.06
2018-07-04T13:14:36.972Z,28.02
2018-07-04T13:17:15.596Z,28.07
2018-07-04T13:19:54.225Z,28.32
2018-07-04T13:22:32.878Z,28.06
2018-07-04T13:25:11.784Z,27.68
2018-07-04T13:27:50.485Z,27.36
2018-07-04T13:30:29.141Z,27.76
2018-07-04T13:33:07.870Z,27.64
2018-07-04T13:35:46.585Z,27.82
2018-07-04T13:38:25.202Z,28.04
2018-07-04T13:41:03.812Z,28.42
2018-07-04T13:43:42.493Z,28.10
2018-07-04T13:46:21.092Z,28.06
2018-07-04T13:48:59.748Z,28.31
2018-07-04T13:51:38.725Z,28.36
2018-07-04T13:54:17.468Z,28.73
2018-07-04T13:56:55.893Z,29.22
2018-07-04T13:59:34.590Z,29.56
2018-07-04T14:02:13.254Z,29.01
2018-07-04T14:04:51.793Z,28.44
2018-07-04T14:07:30.394Z,29.56
2018-07-04T14:10:09.065Z,29.49
2018-07-04T14:12:47.633Z,30.18
2018-07-04T14:15:26.537Z,29.97
2018-07-04T14:18:05.192Z,29.52
2018-07-04T14:20:43.864Z,29.54
2018-07-04T14:23:22.527Z,28.81
2018-07-04T14:26:01.078Z,28.84
2018-07-04T14:28:39.766Z,28.44
2018-07-04T14:31:18.378Z,29.40
2018-07-04T14:33:57.084Z,29.27
2018-07-04T14:36:35.570Z,29.52
2018-07-04T14:39:14.221Z,28.97
2018-07-04T14:41:52.849Z,28.54
2018-07-04T14:44:31.905Z,29.15
2018-07-04T14:47:10.613Z,29.46
2018-07-04T14:49:49.067Z,29.45
2018-07-04T14:52:27.871Z,28.90
2018-07-04T14:55:06.999Z,28.29
2018-07-04T14:57:45.936Z,28.59
2018-07-04T15:00:24.465Z,28.90
2018-07-04T15:03:03.293Z,28.59
2018-07-04T15:05:41.776Z,28.42
2018-07-04T15:08:20.457Z,27.65
2018-07-04T15:11:00.001Z,27.64
2018-07-04T15:13:39.773Z,27.73
2018-07-04T15:16:18.389Z,27.30
2018-07-04T15:18:56.964Z,28.11
2018-07-04T15:21:35.656Z,28.32
2018-07-04T15:24:14.527Z,27.76
2018-07-04T15:26:53.244Z,27.96
2018-07-04T15:29:31.958Z,28.01
2018-07-04T15:32:10.654Z,28.20
2018-07-04T15:34:49.449Z,27.97
2018-07-04T15:37:28.113Z,27.86
2018-07-04T15:40:06.915Z,27.62
2018-07-04T15:42:45.505Z,27.87
2018-07-04T15:45:24.145Z,27.93
2018-07-04T15:48:03.165Z,28.29
2018-07-04T15:50:41.961Z,27.63
2018-07-04T15:53:20.926Z,27.72
2018-07-04T15:55:59.757Z,27.90
2018-07-04T15:58:38.398Z,27.39
2018-07-04T16:01:17.319Z,27.39
2018-07-04T16:03:56.053Z,27.60
2018-07-04T16:06:34.601Z,28.56
2018-07-04T16:09:14.510Z,28.12
2018-07-04T16:11:53.026Z,27.84
2018-07-04T16:14:31.657Z,28.16
2018-07-04T16:17:10.264Z,27.47
2018-07-04T16:19:49.221Z,27.08
2018-07-04T16:22:27.897Z,27.45
2018-07-04T16:25:06.955Z,27.98
2018-07-04T16:27:45.811Z,28.41
2018-07-04T16:30:25.378Z,27.95
2018-07-04T16:33:03.996Z,28.18
2018-07-04T16:35:42.891Z,27.31
2018-07-04T16:38:21.612Z,26.99
2018-07-04T16:41:00.210Z,26.79
2018-07-04T16:43:39.259Z,26.96
2018-07-04T16:46:18.143Z,26.64
2018-07-04T16:48:56.906Z,25.98
2018-07-04T16:51:35.584Z,26.22
2018-07-04T16:54:14.453Z,26.19
2018-07-04T16:56:52.869Z,26.08
2018-07-04T16:59:31.539Z,25.75
2018-07-04T17:02:10.725Z,25.52
2018-07-04T17:04:49.516Z,25.67
2018-07-04T17:07:28.161Z,25.47
2018-07-04T17:10:06.902Z,25.10
2018-07-04T17:12:45.731Z,24.83
2018-07-04T17:15:24.500Z,24.71
2018-07-04T17:18:03.176Z,24.62
2018-07-04T17:20:42.352Z,24.50
2018-07-04T17:23:21.035Z,24.34
2018-07-04T17:25:59.575Z,24.36
2018-07-04T17:28:38.348Z,24.26
2018-07-04T17:31:16.910Z,24.04
2018-07-04T17:33:56.072Z,24.02
2018-07-04T17:36:34.876Z,23.81
2018-07-04T17:39:13.477Z,23.81
2018-07-04T17:41:52.145Z,23.76
2018-07-04T17:44:30.910Z,23.69
2018-07-04T17:47:09.408Z,23.68
2018-07-04T17:49:48.058Z,23.65
2018-07-04T17:52:26.585Z,23.56
2018-07-04T17:55:05.280Z,23.53
2018-07-04T17:57:44.048Z,23.43
2018-07-04T18:00:22.740Z,23.32
2018-07-04T18:03:01.513Z,23.10
2018-07-04T18:05:39.980Z,23.07
2018-07-04T18:08:18.761Z,23.03
2018-07-04T18:10:57.621Z,22.95
2018-07-04T18:13:36.509Z,22.99
2018-07-04T18:16:15.062Z,22.97
2018-07-04T18:18:53.784Z,22.97
2018-07-04T18:21:32.352Z,22.92
2018-07-04T18:24:11.201Z,22.88
2018-07-04T18:26:49.974Z,22.89
2018-07-04T18:29:28.576Z,22.78
2018-07-04T18:32:07.521Z,22.71
2018-07-04T18:34:46.607Z,22.67
2018-07-04T18:37:25.840Z,22.50
2018-07-04T18:40:04.462Z,22.50
2018-07-04T18:42:42.993Z,22.45
2018-07-04T18:45:21.814Z,22.41
2018-07-04T18:48:00.605Z,22.30
2018-07-04T18:50:39.196Z,22.29
2018-07-04T18:53:17.713Z,22.13
2018-07-04T18:55:56.445Z,22.07
2018-07-04T18:58:35.303Z,22.02
2018-07-04T19:01:14.537Z,22.06
2018-07-04T19:03:53.338Z,21.98
2018-07-04T19:06:32.080Z,21.88
2018-07-04T19:09:10.753Z,21.85
2018-07-04T19:11:49.277Z,21.82
2018-07-04T19:14:28.021Z,21.77
2018-07-04T19:17:06.525Z,21.74
2018-07-04T19:19:45.214Z,21.75
2018-07-04T19:22:23.852Z,21.64
2018-07-04T19:25:02.543Z,21.59
2018-07-04T19:27:41.241Z,21.46
2018-07-04T19:30:19.786Z,21.36
2018-07-04T19:32:58.334Z,21.28
2018-07-04T19:35:37.075Z,21.24
2018-07-04T19:38:15.818Z,21.06
2018-07-04T19:40:54.642Z,20.92
2018-07-04T19:43:33.377Z,20.88
2018-07-04T19:46:11.998Z,20.89
2018-07-04T19:48:50.794Z,20.84
2018-07-04T19:51:29.686Z,20.76
2018-07-04T19:54:08.350Z,20.65
2018-07-04T19:56:46.837Z,20.54
2018-07-04T19:59:25.496Z,20.43
2018-07-04T20:02:03.996Z,20.36
2018-07-04T20:04:42.692Z,20.24
2018-07-04T20:07:21.532Z,20.18
2018-07-04T20:10:00.177Z,20.10
2018-07-04T20:12:38.780Z,19.98
2018-07-04T20:15:17.317Z,19.91
2018-07-04T20:17:55.947Z,19.83
2018-07-04T20:20:34.511Z,19.71
2018-07-04T20:23:13.027Z,19.55
2018-07-04T20:25:51.623Z,19.57
2018-07-04T20:28:30.235Z,19.53
2018-07-04T20:31:08.887Z,19.39
2018-07-04T20:33:47.419Z,19.38
2018-07-04T20:36:26.351Z,19.32
2018-07-04T20:39:05.669Z,19.33
2018-07-04T20:41:44.272Z,19.18
2018-07-04T20:44:23.340Z,19.10
2018-07-04T20:47:01.845Z,19.03
2018-07-04T20:49:40.569Z,18.97
2018-07-04T20:52:19.375Z,18.82
2018-07-04T20:54:58.149Z,18.76
2018-07-04T20:57:36.749Z,18.78
2018-07-04T21:00:15.753Z,18.71
2018-07-04T21:02:54.449Z,18.56
2018-07-04T21:05:33.083Z,18.47
2018-07-04T21:08:11.907Z,18.45
2018-07-04T21:10:50.893Z,18.42
2018-07-04T21:13:29.773Z,18.40
2018-07-04T21:16:08.424Z,18.28
2018-07-04T21:18:47.023Z,18.15
2018-07-04T21:21:25.785Z,18.20
2018-07-04T21:24:04.598Z,18.17
2018-07-04T21:26:43.120Z,18.18
2018-07-04T21:29:21.963Z,18.12
2018-07-04T21:32:00.762Z,17.88
2018-07-04T21:34:39.326Z,17.93
2018-07-04T21:37:17.893Z,17.88
2018-07-04T21:39:56.456Z,17.75
2018-07-04T21:42:35.165Z,17.66
2018-07-04T21:45:13.821Z,17.59
2018-07-04T21:47:52.462Z,17.62
2018-07-04T21:50:31.114Z,17.61
2018-07-04T21:53:09.678Z,17.58
2018-07-04T21:55:48.280Z,17.52
2018-07-04T21:58:27.130Z,17.48
2018-07-04T22:01:05.593Z,17.38
2018-07-04T22:03:44.211Z,17.44
2018-07-04T22:06:22.850Z,17.39
2018-07-04T22:09:01.531Z,17.26
2018-07-04T22:11:39.960Z,16.93
2018-07-04T22:14:19.322Z,16.97
2018-07-04T22:16:57.906Z,16.97
2018-07-04T22:19:36.685Z,16.97
2018-07-04T22:22:15.217Z,17.03
2018-07-04T22:24:54.209Z,16.84
2018-07-04T22:27:32.857Z,16.79
2018-07-04T22:30:11.410Z,16.81
2018-07-04T22:32:49.970Z,16.74
2018-07-04T22:35:28.533Z,16.77
2018-07-04T22:38:07.079Z,16.70
2018-07-04T22:40:45.768Z,16.63
2018-07-04T22:43:25.033Z,16.63
2018-07-04T22:46:03.716Z,16.58
2018-07-04T22:48:42.863Z,16.52
2018-07-04T22:51:21.470Z,16.56
2018-07-04T22:54:00.061Z,16.55
2018-07-04T22:56:38.857Z,16.46
2018-07-04T22:59:17.540Z,16.42
2018-07-04T23:01:56.253Z,16.35
2018-07-04T23:04:34.757Z,16.36
2018-07-04T23:07:13.328Z,16.46
2018-07-04T23:09:51.924Z,16.48
2018-07-04T23:12:30.865Z,16.56
2018-07-04T23:15:09.488Z,16.48
2018-07-04T23:17:48.061Z,16.16
2018-07-04T23:20:26.489Z,16.12
2018-07-04T23:23:05.343Z,16.07
2018-07-04T23:25:43.942Z,16.19
2018-07-04T23:28:22.554Z,16.12
2018-07-04T23:31:01.133Z,16.09
2018-07-04T23:33:39.789Z,16.07
2018-07-04T23:36:18.328Z,16.09
2018-07-04T23:38:56.969Z,16.04
2018-07-04T23:41:35.554Z,16.06
2018-07-04T23:44:14.156Z,15.86
2018-07-04T23:46:52.575Z,15.79
2018-07-04T23:49:31.093Z,15.80
2018-07-04T23:52:09.749Z,15.74
2018-07-04T23:54:48.466Z,15.65
2018-07-04T23:57:27.262Z,15.67
